createdAt,value
2017-09-24T00:00:51.258Z,60.00
2017-09-24T00:03:19.609Z,63.95
2017-09-24T00:05:47.151Z,63.13
2017-09-24T00:08:17.252Z,60.50
2017-09-24T00:10:44.816Z,60.73
2017-09-24T00:13:12.351Z,63.73
2017-09-24T00:15:39.888Z,60.63
2017-09-24T00:18:08.347Z,63.30
2017-09-24T00:20:35.888Z,58.87
2017-09-24T00:23:03.418Z,63.78
2017-09-24T00:25:31.422Z,68.77
2017-09-24T00:27:58.952Z,63.03
2017-09-24T00:30:26.488Z,58.15
2017-09-24T00:32:54.824Z,55.00
2017-09-24T00:35:22.359Z,61.63
2017-09-24T00:37:49.894Z,53.80
2017-09-24T00:40:17.469Z,52.78
2017-09-24T00:42:45.020Z,58.47
2017-09-24T00:45:12.552Z,63.00
2017-09-24T00:47:40.906Z,50.30
2017-09-24T00:50:08.446Z,53.95
2017-09-24T00:52:35.983Z,48.13
2017-09-24T00:55:03.551Z,51.30
2017-09-24T00:57:31.091Z,58.00
2017-09-24T00:59:58.626Z,53.43
2017-09-24T01:02:26.186Z,49.60
2017-09-24T01:04:53.718Z,50.83
2017-09-24T01:07:21.254Z,44.97
2017-09-24T01:09:48.840Z,49.67
2017-09-24T01:12:16.708Z,55.33
2017-09-24T01:14:44.238Z,56.07
2017-09-24T01:17:11.804Z,55.37
2017-09-24T01:19:39.339Z,50.47
2017-09-24T01:22:06.871Z,45.47
2017-09-24T01:24:34.452Z,51.63
2017-09-24T01:27:02.514Z,56.53
2017-09-24T01:29:30.814Z,52.93
2017-09-24T01:31:58.394Z,47.17
2017-09-24T01:34:26.692Z,55.00
2017-09-24T01:36:54.226Z,49.07
2017-09-24T01:39:21.803Z,49.47
2017-09-24T01:41:49.337Z,48.80
2017-09-24T01:44:16.874Z,53.40
2017-09-24T01:46:44.436Z,52.93
2017-09-24T01:49:13.668Z,53.67
2017-09-24T01:51:41.202Z,54.40
2017-09-24T01:54:09.064Z,58.03
2017-09-24T01:56:36.618Z,56.10
2017-09-24T01:59:04.157Z,58.53
2017-09-24T02:01:31.729Z,56.08
2017-09-24T02:03:59.259Z,52.27
2017-09-24T02:06:26.795Z,55.20
2017-09-24T02:08:54.363Z,58.33
2017-09-24T02:11:21.905Z,59.30
2017-09-24T02:13:49.437Z,46.75
2017-09-24T02:16:17.019Z,59.20
2017-09-24T02:18:44.563Z,53.50
2017-09-24T02:21:12.099Z,65.23
2017-09-24T02:23:39.663Z,68.55
2017-09-24T02:26:07.966Z,58.67
2017-09-24T02:28:36.084Z,62.60
2017-09-24T02:31:03.659Z,61.47
2017-09-24T02:33:31.191Z,70.43
2017-09-24T02:35:58.724Z,65.10
2017-09-24T02:38:26.327Z,54.00
2017-09-24T02:40:53.863Z,60.30
2017-09-24T02:43:21.391Z,63.00
2017-09-24T02:45:49.903Z,51.47
2017-09-24T02:48:17.443Z,58.33
2017-09-24T02:50:44.974Z,60.80
2017-09-24T02:53:12.539Z,50.25
2017-09-24T02:55:40.831Z,53.37
2017-09-24T02:58:08.376Z,54.60
2017-09-24T03:00:36.727Z,57.00
2017-09-24T03:03:04.267Z,60.60
2017-09-24T03:05:31.798Z,54.73
2017-09-24T03:07:59.373Z,54.57
2017-09-24T03:10:27.679Z,58.63
2017-09-24T03:12:55.215Z,54.27
2017-09-24T03:15:22.775Z,57.33
2017-09-24T03:17:50.324Z,51.07
2017-09-24T03:20:17.858Z,54.70
2017-09-24T03:22:45.451Z,61.50
2017-09-24T03:25:15.384Z,60.85
2017-09-24T03:27:42.931Z,72.37
2017-09-24T03:30:10.799Z,74.65
2017-09-24T03:32:39.096Z,74.77
2017-09-24T03:35:06.631Z,79.07
2017-09-24T03:37:34.215Z,80.10
2017-09-24T03:40:01.753Z,82.10
2017-09-24T03:42:29.299Z,76.73
2017-09-24T03:44:56.887Z,59.07
2017-09-24T03:47:24.420Z,65.40
2017-09-24T03:49:51.952Z,56.10
2017-09-24T03:52:19.506Z,60.85
2017-09-24T03:54:47.808Z,64.67
2017-09-24T03:57:16.456Z,60.83
2017-09-24T03:59:44.019Z,56.17
2017-09-24T04:02:11.547Z,57.63
2017-09-24T04:04:39.080Z,51.83
2017-09-24T04:07:06.671Z,60.10
2017-09-24T04:09:34.209Z,58.30
2017-09-24T04:12:01.743Z,49.50
2017-09-24T04:14:29.387Z,51.10
2017-09-24T04:16:56.972Z,52.43
2017-09-24T04:19:24.508Z,49.17
2017-09-24T04:21:52.077Z,48.13
2017-09-24T04:24:20.366Z,59.22
2017-09-24T04:26:48.664Z,54.50
2017-09-24T04:29:16.515Z,54.13
2017-09-24T04:31:44.308Z,48.57
2017-09-24T04:34:11.839Z,53.53
2017-09-24T04:36:39.411Z,53.20
2017-09-24T04:39:06.939Z,57.10
2017-09-24T04:41:34.463Z,47.80
2017-09-24T04:44:02.059Z,49.70
2017-09-24T04:46:29.591Z,49.50
2017-09-24T04:48:57.129Z,47.30
2017-09-24T04:51:24.712Z,51.60
2017-09-24T04:53:52.242Z,55.20
2017-09-24T04:56:19.776Z,51.58
2017-09-24T04:58:47.331Z,52.30
2017-09-24T05:01:16.547Z,49.80
2017-09-24T05:03:44.079Z,69.63
2017-09-24T05:06:12.406Z,43.87
2017-09-24T05:08:39.936Z,45.57
2017-09-24T05:11:07.472Z,49.92
2017-09-24T05:13:35.047Z,56.80
2017-09-24T05:16:02.579Z,47.80
2017-09-24T05:18:30.102Z,51.80
2017-09-24T05:20:57.651Z,43.90
2017-09-24T05:23:25.183Z,50.83
2017-09-24T05:25:52.712Z,48.17
2017-09-24T05:28:20.269Z,42.20
2017-09-24T05:30:47.798Z,42.17
2017-09-24T05:33:17.141Z,51.75
2017-09-24T05:35:44.747Z,52.80
2017-09-24T05:38:12.275Z,44.43
2017-09-24T05:40:39.817Z,44.90
2017-09-24T05:43:07.384Z,47.17
2017-09-24T05:45:35.686Z,43.50
2017-09-24T05:48:03.232Z,46.07
2017-09-24T05:50:31.767Z,41.97
2017-09-24T05:52:59.295Z,43.03
2017-09-24T05:55:26.831Z,37.47
2017-09-24T05:57:55.324Z,43.60
2017-09-24T06:00:23.614Z,43.70
2017-09-24T06:02:51.147Z,41.87
2017-09-24T06:05:19.470Z,41.37
2017-09-24T06:07:47.011Z,42.43
2017-09-24T06:10:16.321Z,41.75
2017-09-24T06:12:44.003Z,44.40
2017-09-24T06:15:16.523Z,42.50
2017-09-24T06:17:44.058Z,45.90
2017-09-24T06:20:11.635Z,45.43
2017-09-24T06:22:39.175Z,42.70
2017-09-24T06:25:06.816Z,45.83
2017-09-24T06:27:34.522Z,42.92
2017-09-24T06:30:02.857Z,42.27
2017-09-24T06:32:30.404Z,44.80
2017-09-24T06:34:58.603Z,36.77
2017-09-24T06:37:26.140Z,49.20
2017-09-24T06:39:53.680Z,39.30
2017-09-24T06:42:21.269Z,42.80
2017-09-24T06:44:48.799Z,48.17
2017-09-24T06:47:17.261Z,47.00
2017-09-24T06:49:44.851Z,44.03
2017-09-24T06:52:12.647Z,43.33
2017-09-24T06:54:40.238Z,44.53
2017-09-24T06:57:07.935Z,44.17
2017-09-24T06:59:35.692Z,50.60
2017-09-24T07:02:03.358Z,44.40
2017-09-24T07:04:31.111Z,40.97
2017-09-24T07:06:58.660Z,37.53
2017-09-24T07:09:26.968Z,36.73
2017-09-24T07:11:54.523Z,36.00
2017-09-24T07:14:22.051Z,36.37
2017-09-24T07:16:50.355Z,40.97
2017-09-24T07:19:17.932Z,32.13
2017-09-24T07:21:45.467Z,36.80
2017-09-24T07:24:25.519Z,32.03
2017-09-24T07:29:36.931Z,41.30
2017-09-24T07:32:04.470Z,36.30
2017-09-24T07:34:32.075Z,34.05
2017-09-24T07:37:00.187Z,34.97
2017-09-24T07:39:27.722Z,32.38
2017-09-24T07:41:55.279Z,33.77
2017-09-24T07:44:22.859Z,31.90
2017-09-24T07:46:50.390Z,31.73
2017-09-24T07:49:17.924Z,32.30
2017-09-24T07:51:45.495Z,31.20
2017-09-24T07:54:14.479Z,33.63
2017-09-24T07:56:42.012Z,30.20
2017-09-24T07:59:10.397Z,31.30
2017-09-24T08:01:37.963Z,30.77
2017-09-24T08:04:05.500Z,30.10
2017-09-24T08:06:33.087Z,32.75
2017-09-24T08:09:00.623Z,39.33
2017-09-24T08:11:28.263Z,30.48
2017-09-24T08:13:55.820Z,29.60
2017-09-24T08:16:23.359Z,32.33
2017-09-24T08:18:50.895Z,29.90
2017-09-24T08:21:18.461Z,29.47
2017-09-24T08:23:45.991Z,29.57
2017-09-24T08:26:24.368Z,28.55
2017-09-24T08:31:37.034Z,26.50
2017-09-24T08:34:04.579Z,28.53
2017-09-24T08:36:32.132Z,26.33
2017-09-24T08:39:01.099Z,25.47
2017-09-24T08:41:29.054Z,25.33
2017-09-24T08:43:56.827Z,26.67
2017-09-24T08:46:36.205Z,27.43
2017-09-24T08:49:06.025Z,26.70
2017-09-24T08:51:37.407Z,26.23
2017-09-24T08:54:07.131Z,24.03
2017-09-24T08:56:36.824Z,26.35
2017-09-24T08:59:04.534Z,26.67
2017-09-24T09:01:32.218Z,25.17
2017-09-24T09:03:59.792Z,24.30
2017-09-24T09:06:31.165Z,24.15
2017-09-24T09:09:00.368Z,25.10
2017-09-24T09:11:28.125Z,22.80
2017-09-24T09:13:57.695Z,20.07
2017-09-24T09:16:25.967Z,20.90
2017-09-24T09:18:54.740Z,19.23
2017-09-24T09:21:34.248Z,18.30
2017-09-24T09:24:01.807Z,17.80
2017-09-24T09:26:30.632Z,19.62
2017-09-24T09:28:59.164Z,16.80
2017-09-24T09:31:26.803Z,17.00
2017-09-24T09:33:55.218Z,16.20
2017-09-24T09:36:23.521Z,19.37
2017-09-24T09:38:54.902Z,21.03
2017-09-24T09:41:25.613Z,20.00
2017-09-24T09:43:53.251Z,20.45
2017-09-24T09:49:27.970Z,22.73
2017-09-24T09:51:55.557Z,20.37
2017-09-24T09:54:23.867Z,21.50
2017-09-24T09:56:51.427Z,19.57
2017-09-24T09:59:19.157Z,20.47
2017-09-24T10:01:46.701Z,20.27
2017-09-24T10:04:16.560Z,19.90
2017-09-24T10:06:47.095Z,19.60
2017-09-24T10:09:28.066Z,19.97
2017-09-24T10:11:55.623Z,20.93
2017-09-24T10:14:23.940Z,21.90
2017-09-24T10:16:52.286Z,24.50
2017-09-24T10:19:20.040Z,21.98
2017-09-24T10:21:48.294Z,25.30
2017-09-24T10:24:16.422Z,23.70
2017-09-24T10:26:43.997Z,24.10
2017-09-24T10:29:24.044Z,24.77
2017-09-24T10:32:09.179Z,26.50
2017-09-24T10:34:36.719Z,22.70
2017-09-24T10:37:04.251Z,24.50
2017-09-24T10:39:31.908Z,24.77
2017-09-24T10:41:59.863Z,26.67
2017-09-24T10:44:27.425Z,25.03
2017-09-24T10:46:55.761Z,23.00
2017-09-24T10:49:24.158Z,22.57
2017-09-24T10:51:51.712Z,24.07
2017-09-24T10:54:19.310Z,22.27
2017-09-24T10:56:47.623Z,22.97
2017-09-24T10:59:16.313Z,22.08
2017-09-24T11:01:43.945Z,23.00
2017-09-24T11:04:11.517Z,22.10
2017-09-24T11:06:39.086Z,21.93
2017-09-24T11:09:06.712Z,20.63
2017-09-24T11:11:36.263Z,22.63
2017-09-24T11:14:03.856Z,25.10
2017-09-24T11:16:31.498Z,30.73
2017-09-24T11:18:59.076Z,25.27
2017-09-24T11:21:26.656Z,26.03
2017-09-24T11:23:55.032Z,29.10
2017-09-24T11:26:22.582Z,25.45
2017-09-24T11:28:50.922Z,29.37
2017-09-24T11:31:18.510Z,26.20
2017-09-24T11:33:46.081Z,25.37
2017-09-24T11:36:16.265Z,22.52
2017-09-24T11:38:43.835Z,28.20
2017-09-24T11:41:11.402Z,21.80
2017-09-24T11:43:39.114Z,22.23
2017-09-24T11:46:07.496Z,22.83
2017-09-24T11:48:35.057Z,25.67
2017-09-24T11:51:02.626Z,21.37
2017-09-24T11:53:30.220Z,22.50
2017-09-24T11:55:57.771Z,19.03
2017-09-24T11:58:25.340Z,18.80
2017-09-24T12:00:52.916Z,17.57
2017-09-24T12:03:20.483Z,20.92
2017-09-24T12:05:48.048Z,17.23
2017-09-24T12:08:16.509Z,17.70
2017-09-24T12:10:44.081Z,19.67
2017-09-24T12:13:11.643Z,19.37
2017-09-24T12:15:39.231Z,24.43
2017-09-24T12:18:07.531Z,18.33
2017-09-24T12:20:35.071Z,19.17
2017-09-24T12:23:03.512Z,18.80
2017-09-24T12:25:31.077Z,26.30
2017-09-24T12:27:58.620Z,17.97
2017-09-24T12:30:26.220Z,21.70
2017-09-24T12:32:53.762Z,21.40
2017-09-24T12:35:21.296Z,24.23
2017-09-24T12:37:48.879Z,22.47
2017-09-24T12:40:17.323Z,25.15
2017-09-24T12:42:44.861Z,19.50
2017-09-24T12:45:12.423Z,22.07
2017-09-24T12:47:39.958Z,22.23
2017-09-24T12:50:08.255Z,20.83
2017-09-24T12:52:35.864Z,23.43
2017-09-24T12:55:03.399Z,21.37
2017-09-24T12:57:30.939Z,19.33
2017-09-24T12:59:58.515Z,18.15
2017-09-24T13:02:26.060Z,15.93
2017-09-24T13:04:53.604Z,16.97
2017-09-24T13:07:21.932Z,16.83
2017-09-24T13:09:49.472Z,15.10
2017-09-24T13:12:17.004Z,15.37
2017-09-24T13:14:45.059Z,17.87
2017-09-24T13:17:13.515Z,21.30
2017-09-24T13:19:41.047Z,21.13
2017-09-24T13:22:08.738Z,22.43
2017-09-24T13:24:36.293Z,19.77
2017-09-24T13:27:03.831Z,19.43
2017-09-24T13:29:31.457Z,19.77
2017-09-24T13:31:59.037Z,22.80
2017-09-24T13:34:26.592Z,19.97
2017-09-24T13:36:54.192Z,22.57
2017-09-24T13:39:21.724Z,18.47
2017-09-24T13:41:49.315Z,20.97
2017-09-24T13:44:16.875Z,21.43
2017-09-24T13:46:44.423Z,21.50
2017-09-24T13:49:11.959Z,21.00
2017-09-24T13:51:39.519Z,18.65
2017-09-24T13:54:07.059Z,19.73
2017-09-24T13:56:34.601Z,20.00
2017-09-24T13:59:02.444Z,19.23
2017-09-24T14:01:29.980Z,21.25
2017-09-24T14:03:57.511Z,18.47
2017-09-24T14:06:25.851Z,19.52
2017-09-24T14:08:53.395Z,17.90
2017-09-24T14:11:20.929Z,16.92
2017-09-24T14:13:49.251Z,18.25
2017-09-24T14:16:16.779Z,17.10
2017-09-24T14:18:44.316Z,18.70
2017-09-24T14:21:11.903Z,17.33
2017-09-24T14:23:39.468Z,16.57
2017-09-24T14:26:07.091Z,15.00
2017-09-24T14:28:34.712Z,15.27
2017-09-24T14:31:02.250Z,16.33
2017-09-24T14:33:29.800Z,15.13
2017-09-24T14:35:57.410Z,15.50
2017-09-24T14:38:25.758Z,14.70
2017-09-24T14:40:53.295Z,15.40
2017-09-24T14:43:20.919Z,15.80
2017-09-24T14:45:48.459Z,15.48
2017-09-24T14:48:17.172Z,15.27
2017-09-24T14:50:45.511Z,16.67
2017-09-24T14:53:30.164Z,19.50
2017-09-24T14:58:42.628Z,20.60
2017-09-24T15:01:10.978Z,19.33
2017-09-24T15:03:38.586Z,20.43
2017-09-24T15:06:06.152Z,25.47
2017-09-24T15:08:33.700Z,20.83
2017-09-24T15:11:01.233Z,20.03
2017-09-24T15:13:28.832Z,19.63
2017-09-24T15:15:56.364Z,21.60
2017-09-24T15:18:24.840Z,21.20
2017-09-24T15:20:53.207Z,20.83
2017-09-24T15:23:21.500Z,21.62
2017-09-24T15:25:52.206Z,20.90
2017-09-24T15:28:19.787Z,18.75
2017-09-24T15:30:47.571Z,19.33
2017-09-24T15:33:17.198Z,19.55
2017-09-24T15:35:44.814Z,21.90
2017-09-24T15:38:12.348Z,20.03
2017-09-24T15:40:39.879Z,19.57
2017-09-24T15:43:07.467Z,21.10
2017-09-24T15:45:35.012Z,23.10
2017-09-24T15:48:02.629Z,19.40
2017-09-24T15:50:30.419Z,20.27
2017-09-24T15:52:57.972Z,24.43
2017-09-24T15:55:25.514Z,21.90
2017-09-24T15:57:53.851Z,21.90
2017-09-24T16:00:21.411Z,24.80
2017-09-24T16:02:48.948Z,29.23
2017-09-24T16:05:17.333Z,28.08
2017-09-24T16:07:44.896Z,35.40
2017-09-24T16:10:12.440Z,22.70
2017-09-24T16:12:40.000Z,26.40
2017-09-24T16:15:07.595Z,21.40
2017-09-24T16:17:35.148Z,26.77
2017-09-24T16:20:02.720Z,32.70
2017-09-24T16:22:30.255Z,26.23
2017-09-24T16:24:57.812Z,28.23
2017-09-24T16:27:25.421Z,27.23
2017-09-24T16:29:53.764Z,27.27
2017-09-24T16:32:21.644Z,24.87
2017-09-24T16:34:49.253Z,24.90
2017-09-24T16:37:17.553Z,28.43
2017-09-24T16:39:45.087Z,25.23
2017-09-24T16:42:14.379Z,32.53
2017-09-24T16:44:42.682Z,28.90
2017-09-24T16:47:10.213Z,24.77
2017-09-24T16:49:38.562Z,38.40
2017-09-24T16:52:06.692Z,28.87
2017-09-24T16:54:34.231Z,21.90
2017-09-24T16:57:02.581Z,27.37
2017-09-24T16:59:30.189Z,29.83
2017-09-24T17:01:57.755Z,26.57
2017-09-24T17:04:25.322Z,29.30
2017-09-24T17:06:52.857Z,30.73
2017-09-24T17:09:20.391Z,30.62
2017-09-24T17:11:48.922Z,27.90
2017-09-24T17:14:16.640Z,34.55
2017-09-24T17:16:44.187Z,31.60
2017-09-24T17:19:11.747Z,33.00
2017-09-24T17:21:39.288Z,31.83
2017-09-24T17:24:06.835Z,31.90
2017-09-24T17:26:34.399Z,34.90
2017-09-24T17:29:01.931Z,25.73
2017-09-24T17:31:29.467Z,25.37
2017-09-24T17:33:57.863Z,27.97
2017-09-24T17:36:25.403Z,31.90
2017-09-24T17:38:53.724Z,31.27
2017-09-24T17:41:21.285Z,36.35
2017-09-24T17:43:48.819Z,30.73
2017-09-24T17:46:16.403Z,33.47
2017-09-24T17:48:45.651Z,37.70
2017-09-24T17:51:15.418Z,36.13
2017-09-24T17:53:43.147Z,34.07
2017-09-24T17:56:11.501Z,33.53
2017-09-24T17:58:39.035Z,35.80
2017-09-24T18:01:06.581Z,33.47
2017-09-24T18:03:34.143Z,34.77
2017-09-24T18:06:01.693Z,40.47
2017-09-24T18:08:29.229Z,37.03
2017-09-24T18:10:57.575Z,33.60
2017-09-24T18:13:25.120Z,33.20
2017-09-24T18:15:52.651Z,31.70
2017-09-24T18:18:21.020Z,39.97
2017-09-24T18:20:48.551Z,37.70
2017-09-24T18:23:16.523Z,38.10
2017-09-24T18:25:44.082Z,35.00
2017-09-24T18:28:12.378Z,36.47
2017-09-24T18:30:39.919Z,29.63
2017-09-24T18:33:08.247Z,38.03
2017-09-24T18:35:35.782Z,33.03
2017-09-24T18:38:03.395Z,37.03
2017-09-24T18:40:30.976Z,34.73
2017-09-24T18:42:59.283Z,35.50
2017-09-24T18:45:26.811Z,35.33
2017-09-24T18:47:54.379Z,33.80
2017-09-24T18:50:21.910Z,36.60
2017-09-24T18:52:49.447Z,38.10
2017-09-24T18:55:17.534Z,30.80
2017-09-24T18:57:45.067Z,33.77
2017-09-24T19:00:12.607Z,29.65
2017-09-24T19:02:40.196Z,31.87
2017-09-24T19:05:07.740Z,33.27
2017-09-24T19:07:35.386Z,31.57
2017-09-24T19:10:03.260Z,34.07
2017-09-24T19:12:30.872Z,32.60
2017-09-24T19:14:58.427Z,36.37
2017-09-24T19:17:26.028Z,29.60
2017-09-24T19:19:53.636Z,31.73
2017-09-24T19:22:21.174Z,33.17
2017-09-24T19:24:49.166Z,35.00
2017-09-24T19:27:16.734Z,32.73
2017-09-24T19:29:44.478Z,32.20
2017-09-24T19:32:12.058Z,31.20
2017-09-24T19:34:39.659Z,32.07
2017-09-24T19:37:08.022Z,32.00
2017-09-24T19:39:35.784Z,30.40
2017-09-24T19:42:03.411Z,33.17
2017-09-24T19:44:31.028Z,33.90
2017-09-24T19:46:58.691Z,34.57
2017-09-24T19:49:26.263Z,34.33
2017-09-24T19:51:53.958Z,38.30
2017-09-24T19:54:21.745Z,34.70
2017-09-24T19:56:50.500Z,39.60
2017-09-24T19:59:18.136Z,41.07
2017-09-24T20:01:46.491Z,32.93
2017-09-24T20:04:16.497Z,31.60
2017-09-24T20:06:44.152Z,37.50
2017-09-24T20:09:11.745Z,36.20
2017-09-24T20:11:40.051Z,37.20
2017-09-24T20:14:07.585Z,36.50
2017-09-24T20:16:35.945Z,36.20
2017-09-24T20:19:03.479Z,34.97
2017-09-24T20:21:31.166Z,36.40
2017-09-24T20:23:59.796Z,34.93
2017-09-24T20:26:28.146Z,39.55
2017-09-24T20:28:55.709Z,44.93
2017-09-24T20:31:24.900Z,39.40
2017-09-24T20:33:53.237Z,43.33
2017-09-24T20:36:20.788Z,43.48
2017-09-24T20:38:48.356Z,42.07
2017-09-24T20:41:17.241Z,39.67
2017-09-24T20:43:44.831Z,44.40
2017-09-24T20:46:12.397Z,39.00
2017-09-24T20:48:39.952Z,46.50
2017-09-24T20:51:07.626Z,40.23
2017-09-24T20:53:36.004Z,42.90
2017-09-24T20:56:03.603Z,46.00
2017-09-24T20:58:31.152Z,42.90
2017-09-24T21:00:58.725Z,46.50
2017-09-24T21:03:26.274Z,48.93
2017-09-24T21:05:53.822Z,44.20
2017-09-24T21:08:21.443Z,38.77
2017-09-24T21:10:49.245Z,39.20
2017-09-24T21:13:17.553Z,40.57
2017-09-24T21:15:45.936Z,40.93
2017-09-24T21:18:15.323Z,42.80
2017-09-24T21:20:42.859Z,49.23
2017-09-24T21:23:10.435Z,42.70
2017-09-24T21:25:37.971Z,44.23
2017-09-24T21:28:06.271Z,43.40
2017-09-24T21:30:33.833Z,44.93
2017-09-24T21:33:01.363Z,42.10
2017-09-24T21:35:28.895Z,46.07
2017-09-24T21:37:56.475Z,45.78
2017-09-24T21:40:24.007Z,49.17
2017-09-24T21:42:51.549Z,42.62
2017-09-24T21:45:19.109Z,48.20
2017-09-24T21:47:46.643Z,50.63
2017-09-24T21:50:24.528Z,43.92
2017-09-24T21:56:52.211Z,54.37
2017-09-24T21:59:20.204Z,45.67
2017-09-24T22:01:47.746Z,43.35
2017-09-24T22:04:16.435Z,46.03
2017-09-24T22:06:44.734Z,44.27
2017-09-24T22:09:12.267Z,42.33
2017-09-24T22:11:40.011Z,40.07
2017-09-24T22:14:07.557Z,40.07
2017-09-24T22:16:35.097Z,43.97
2017-09-24T22:19:02.679Z,46.33
2017-09-24T22:21:30.219Z,47.57
2017-09-24T22:23:57.755Z,45.03
2017-09-24T22:26:25.311Z,47.27
2017-09-24T22:28:53.615Z,46.23
2017-09-24T22:31:21.150Z,53.63
2017-09-24T22:33:48.707Z,49.73
2017-09-24T22:36:16.447Z,46.40
2017-09-24T22:38:43.982Z,40.80
2017-09-24T22:41:11.600Z,45.20
2017-09-24T22:43:39.141Z,47.10
2017-09-24T22:46:07.435Z,55.90
2017-09-24T22:48:34.995Z,50.17
2017-09-24T22:51:02.527Z,45.15
2017-09-24T22:53:30.056Z,45.93
2017-09-24T22:55:57.639Z,45.67
2017-09-24T22:58:25.171Z,38.43
2017-09-24T23:00:52.722Z,38.73
2017-09-24T23:03:20.299Z,45.12
2017-09-24T23:05:47.840Z,42.47
2017-09-24T23:08:17.226Z,40.67
2017-09-24T23:10:44.787Z,42.00
2017-09-24T23:13:12.323Z,42.13
2017-09-24T23:15:40.624Z,43.63
2017-09-24T23:18:08.388Z,42.37
2017-09-24T23:20:35.919Z,43.13
2017-09-24T23:23:04.217Z,41.63
2017-09-24T23:25:31.798Z,42.20
2017-09-24T23:27:59.336Z,46.47
2017-09-24T23:30:26.871Z,36.00
2017-09-24T23:32:54.428Z,39.15
2017-09-24T23:35:21.960Z,41.00
2017-09-24T23:37:49.487Z,36.03
2017-09-24T23:40:17.048Z,42.87
2017-09-24T23:42:44.579Z,40.90
2017-09-24T23:45:13.809Z,39.53
2017-09-24T23:47:41.392Z,40.83
2017-09-24T23:50:08.919Z,35.57
2017-09-24T23:52:36.464Z,38.72
2017-09-24T23:55:04.020Z,38.83
2017-09-24T23:57:32.316Z,42.50
2017-09-24T23:59:59.851Z,40.03
